createdAt,value
2019-01-20T00:02:25.062Z,9.33
2019-01-20T00:04:53.683Z,9.07
2019-01-20T00:07:22.277Z,8.08
2019-01-20T00:09:50.906Z,8.33
2019-01-20T00:12:19.547Z,7.87
2019-01-20T00:14:48.113Z,7.55
2019-01-20T00:17:19.243Z,7.33
2019-01-20T00:19:47.880Z,7.43
2019-01-20T00:22:17.493Z,7.65
2019-01-20T00:24:46.288Z,7.27
2019-01-20T00:27:14.974Z,5.93
2019-01-20T00:29:43.562Z,6.00
2019-01-20T00:32:12.240Z,5.80
2019-01-20T00:34:40.879Z,4.90
2019-01-20T00:37:09.482Z,5.17
2019-01-20T00:39:38.862Z,5.30
2019-01-20T00:42:07.443Z,5.93
2019-01-20T00:44:36.310Z,5.15
2019-01-20T00:47:05.002Z,4.62
2019-01-20T00:49:33.593Z,5.17
2019-01-20T00:52:02.392Z,4.90
2019-01-20T00:54:31.093Z,4.97
2019-01-20T00:56:59.678Z,5.00
2019-01-20T00:59:32.650Z,4.80
2019-01-20T01:02:01.406Z,4.70
2019-01-20T01:04:30.226Z,5.30
2019-01-20T01:06:58.998Z,5.05
2019-01-20T01:09:27.567Z,5.10
2019-01-20T01:11:58.094Z,5.10
2019-01-20T01:14:26.666Z,4.97
2019-01-20T01:16:55.249Z,5.47
2019-01-20T01:19:23.822Z,4.77
2019-01-20T01:21:52.407Z,5.27
2019-01-20T01:24:20.981Z,4.35
2019-01-20T01:26:49.560Z,5.10
2019-01-20T01:29:18.122Z,5.27
2019-01-20T01:31:46.702Z,5.67
2019-01-20T01:34:16.051Z,6.20
2019-01-20T01:36:44.635Z,6.93
2019-01-20T01:39:13.221Z,7.93
2019-01-20T01:41:41.914Z,8.90
2019-01-20T01:44:10.485Z,10.30
2019-01-20T01:46:39.071Z,10.32
2019-01-20T01:49:07.712Z,9.13
2019-01-20T01:51:36.282Z,8.70
2019-01-20T01:54:04.890Z,8.03
2019-01-20T01:56:35.125Z,7.20
2019-01-20T01:59:03.708Z,7.20
2019-01-20T02:01:32.283Z,7.17
2019-01-20T02:04:00.853Z,6.63
2019-01-20T02:06:29.427Z,5.80
2019-01-20T02:08:58.010Z,6.55
2019-01-20T02:11:26.568Z,6.53
2019-01-20T02:13:55.157Z,6.20
2019-01-20T02:16:23.729Z,5.93
2019-01-20T02:18:53.121Z,6.60
2019-01-20T02:21:21.749Z,7.00
2019-01-20T02:23:50.317Z,6.90
2019-01-20T02:26:18.889Z,6.87
2019-01-20T02:28:47.467Z,7.03
2019-01-20T02:31:16.038Z,6.28
2019-01-20T02:33:44.604Z,6.83
2019-01-20T02:36:13.325Z,6.83
2019-01-20T02:38:41.906Z,6.80
2019-01-20T02:41:10.491Z,6.70
2019-01-20T02:43:39.069Z,7.22
2019-01-20T02:46:07.645Z,7.57
2019-01-20T02:48:36.236Z,6.77
2019-01-20T02:51:04.820Z,7.53
2019-01-20T02:53:33.405Z,7.13
2019-01-20T02:56:01.982Z,7.33
2019-01-20T02:58:30.570Z,7.60
2019-01-20T03:00:59.150Z,8.13
2019-01-20T03:03:29.130Z,7.62
2019-01-20T03:05:57.709Z,7.10
2019-01-20T03:08:26.276Z,7.47
2019-01-20T03:10:55.049Z,6.90
2019-01-20T03:13:23.647Z,7.20
2019-01-20T03:15:52.234Z,6.90
2019-01-20T03:18:20.803Z,6.33
2019-01-20T03:20:49.388Z,6.03
2019-01-20T03:23:17.956Z,5.90
2019-01-20T03:25:46.529Z,5.87
2019-01-20T03:28:15.106Z,5.78
2019-01-20T03:30:43.693Z,6.30
2019-01-20T03:33:12.263Z,5.63
2019-01-20T03:35:40.852Z,5.40
2019-01-20T03:38:09.416Z,5.75
2019-01-20T03:40:37.986Z,5.23
2019-01-20T03:43:06.693Z,4.90
2019-01-20T03:45:35.335Z,5.60
2019-01-20T03:48:03.936Z,4.90
2019-01-20T03:50:32.518Z,5.57
2019-01-20T03:53:01.087Z,5.25
2019-01-20T03:55:29.676Z,5.10
2019-01-20T03:57:58.237Z,5.70
2019-01-20T04:00:26.810Z,5.00
2019-01-20T04:03:05.084Z,4.73
2019-01-20T04:05:33.642Z,4.67
2019-01-20T04:08:02.236Z,5.00
2019-01-20T04:10:30.800Z,4.87
2019-01-20T04:12:59.391Z,5.13
2019-01-20T04:15:28.038Z,5.50
2019-01-20T04:17:56.634Z,5.60
2019-01-20T04:20:25.210Z,6.45
2019-01-20T04:22:53.794Z,6.23
2019-01-20T04:25:22.379Z,5.60
2019-01-20T04:27:50.969Z,6.53
2019-01-20T04:30:20.130Z,5.60
2019-01-20T04:32:48.780Z,6.17
2019-01-20T04:35:17.373Z,6.40
2019-01-20T04:37:45.949Z,5.08
2019-01-20T04:40:17.026Z,5.70
2019-01-20T04:42:45.586Z,5.43
2019-01-20T04:45:14.193Z,6.37
2019-01-20T04:47:43.128Z,6.37
2019-01-20T04:50:16.601Z,5.90
2019-01-20T04:52:46.154Z,6.57
2019-01-20T04:55:14.911Z,6.37
2019-01-20T04:57:46.223Z,7.23
2019-01-20T05:00:17.249Z,6.77
2019-01-20T05:02:45.813Z,7.47
2019-01-20T05:05:14.406Z,7.07
2019-01-20T05:07:42.991Z,7.30
2019-01-20T05:10:13.032Z,7.10
2019-01-20T05:12:41.677Z,8.17
2019-01-20T05:15:12.369Z,7.63
2019-01-20T05:17:40.949Z,7.80
2019-01-20T05:20:09.569Z,7.30
2019-01-20T05:22:38.231Z,8.90
2019-01-20T05:25:07.156Z,7.33
2019-01-20T05:27:35.756Z,9.53
2019-01-20T05:30:05.608Z,7.37
2019-01-20T05:32:34.197Z,8.23
2019-01-20T05:35:02.794Z,8.07
2019-01-20T05:37:31.417Z,8.33
2019-01-20T05:39:59.991Z,8.33
2019-01-20T05:42:28.570Z,8.63
2019-01-20T05:44:57.178Z,9.07
2019-01-20T05:47:27.278Z,9.00
2019-01-20T05:49:55.870Z,9.87
2019-01-20T05:52:24.453Z,9.87
2019-01-20T05:54:53.070Z,8.23
2019-01-20T05:57:21.637Z,8.37
2019-01-20T05:59:50.218Z,9.25
2019-01-20T06:02:18.790Z,9.70
2019-01-20T06:04:47.410Z,9.50
2019-01-20T06:07:15.985Z,8.30
2019-01-20T06:09:44.625Z,8.80
2019-01-20T06:12:13.216Z,8.83
2019-01-20T06:14:41.802Z,9.87
2019-01-20T06:17:10.377Z,8.83
2019-01-20T06:19:38.977Z,9.63
2019-01-20T06:22:07.554Z,9.27
2019-01-20T06:24:36.144Z,9.63
2019-01-20T06:27:04.719Z,8.50
2019-01-20T06:29:33.302Z,8.37
2019-01-20T06:32:01.896Z,9.93
2019-01-20T06:34:30.485Z,8.13
2019-01-20T06:36:59.086Z,8.10
2019-01-20T06:39:29.035Z,8.73
2019-01-20T06:41:57.610Z,8.70
2019-01-20T06:44:26.198Z,8.60
2019-01-20T06:46:54.778Z,9.17
2019-01-20T06:49:23.392Z,8.93
2019-01-20T06:51:51.978Z,8.03
2019-01-20T06:54:20.578Z,8.80
2019-01-20T06:56:49.155Z,8.20
2019-01-20T06:59:18.169Z,8.20
2019-01-20T07:01:46.770Z,8.50
2019-01-20T07:04:15.367Z,8.00
2019-01-20T07:06:44.016Z,8.20
2019-01-20T07:09:12.586Z,8.47
2019-01-20T07:11:41.152Z,8.10
2019-01-20T07:14:09.721Z,7.97
2019-01-20T07:16:38.309Z,8.43
2019-01-20T07:19:06.950Z,8.53
2019-01-20T07:21:36.201Z,8.23
2019-01-20T07:24:04.811Z,8.57
2019-01-20T07:26:33.397Z,8.87
2019-01-20T07:29:01.964Z,7.87
2019-01-20T07:31:30.541Z,8.37
2019-01-20T07:33:59.112Z,8.47
2019-01-20T07:36:27.690Z,8.27
2019-01-20T07:38:56.250Z,7.85
2019-01-20T07:41:24.836Z,8.40
2019-01-20T07:43:54.194Z,8.20
2019-01-20T07:46:22.794Z,9.20
2019-01-20T07:48:51.390Z,8.07
2019-01-20T07:51:19.974Z,8.87
2019-01-20T07:53:48.558Z,8.50
2019-01-20T07:56:17.146Z,9.58
2019-01-20T07:58:45.718Z,9.17
2019-01-20T08:01:14.294Z,9.37
2019-01-20T08:03:42.872Z,9.87
2019-01-20T08:06:12.079Z,10.37
2019-01-20T08:08:40.661Z,9.37
2019-01-20T08:11:09.230Z,9.17
2019-01-20T08:13:37.811Z,9.30
2019-01-20T08:16:06.398Z,8.53
2019-01-20T08:18:34.974Z,8.87
2019-01-20T08:21:03.592Z,9.57
2019-01-20T08:23:32.160Z,8.73
2019-01-20T08:26:01.020Z,10.00
2019-01-20T08:28:29.619Z,9.20
2019-01-20T08:30:58.221Z,9.23
2019-01-20T08:33:26.778Z,8.00
2019-01-20T08:35:55.357Z,9.07
2019-01-20T08:38:24.046Z,9.63
2019-01-20T08:40:52.629Z,9.78
2019-01-20T08:43:31.542Z,9.37
2019-01-20T08:46:42.702Z,9.28
2019-01-20T08:49:11.289Z,9.33
2019-01-20T08:51:41.238Z,9.00
2019-01-20T08:54:09.858Z,9.90
2019-01-20T08:56:38.451Z,9.63
2019-01-20T08:59:07.017Z,10.10
2019-01-20T09:01:35.608Z,9.23
2019-01-20T09:04:04.817Z,9.32
2019-01-20T09:06:33.482Z,9.53
2019-01-20T09:09:03.773Z,9.70
2019-01-20T09:11:33.768Z,8.83
2019-01-20T09:14:02.582Z,9.67
2019-01-20T09:16:31.272Z,10.03
2019-01-20T09:18:59.898Z,10.03
2019-01-20T09:21:28.492Z,9.27
2019-01-20T09:23:57.070Z,10.65
2019-01-20T09:26:25.658Z,9.55
2019-01-20T09:28:55.765Z,9.37
2019-01-20T09:31:24.342Z,10.00
2019-01-20T09:33:55.511Z,9.47
2019-01-20T09:36:28.416Z,9.80
2019-01-20T09:38:57.206Z,10.40
2019-01-20T09:41:26.102Z,10.33
2019-01-20T09:43:54.813Z,10.33
2019-01-20T09:46:23.377Z,11.00
2019-01-20T09:48:52.008Z,11.33
2019-01-20T09:51:20.910Z,12.33
2019-01-20T09:53:49.563Z,12.40
2019-01-20T09:56:18.126Z,11.73
2019-01-20T09:58:49.361Z,16.12
2019-01-20T10:01:20.825Z,11.10
2019-01-20T10:03:58.469Z,9.27
2019-01-20T10:06:27.068Z,10.00
2019-01-20T10:08:55.654Z,9.63
2019-01-20T10:11:24.237Z,10.20
2019-01-20T10:13:54.858Z,10.03
2019-01-20T10:16:23.133Z,12.33
2019-01-20T10:18:51.706Z,11.90
2019-01-20T10:21:20.344Z,11.70
2019-01-20T10:23:48.938Z,11.57
2019-01-20T10:26:17.510Z,11.40
2019-01-20T10:28:46.123Z,10.97
2019-01-20T10:31:14.710Z,12.60
2019-01-20T10:33:43.330Z,13.63
2019-01-20T10:36:12.351Z,14.93
2019-01-20T10:38:40.946Z,13.43
2019-01-20T10:41:09.516Z,12.83
2019-01-20T10:43:38.089Z,13.70
2019-01-20T10:46:06.683Z,13.17
2019-01-20T10:48:35.283Z,16.77
2019-01-20T10:51:03.848Z,11.97
2019-01-20T10:53:32.429Z,12.53
2019-01-20T10:56:01.017Z,12.87
2019-01-20T10:58:29.994Z,12.20
2019-01-20T11:00:58.569Z,11.93
2019-01-20T11:03:27.272Z,12.45
2019-01-20T11:05:55.862Z,12.17
2019-01-20T11:08:25.802Z,12.63
2019-01-20T11:10:54.579Z,12.40
2019-01-20T11:13:23.199Z,13.17
2019-01-20T11:15:51.907Z,13.43
2019-01-20T11:18:20.566Z,12.60
2019-01-20T11:20:49.212Z,14.27
2019-01-20T11:23:19.365Z,14.77
2019-01-20T11:25:47.950Z,13.63
2019-01-20T11:28:16.555Z,12.60
2019-01-20T11:30:45.141Z,14.30
2019-01-20T11:33:13.735Z,13.53
2019-01-20T11:35:42.321Z,14.07
2019-01-20T11:38:10.999Z,13.55
2019-01-20T11:40:39.659Z,14.07
2019-01-20T11:43:08.346Z,14.33
2019-01-20T11:45:37.034Z,15.07
2019-01-20T11:48:07.526Z,13.55
2019-01-20T11:50:36.118Z,13.40
2019-01-20T11:53:04.693Z,14.37
2019-01-20T11:55:34.678Z,14.37
2019-01-20T11:58:04.222Z,13.47
2019-01-20T12:00:35.816Z,14.20
2019-01-20T12:03:07.499Z,13.37
2019-01-20T12:05:40.109Z,13.38
2019-01-20T12:08:09.859Z,13.43
2019-01-20T12:10:39.651Z,14.57
2019-01-20T12:13:12.537Z,14.73
2019-01-20T12:15:41.626Z,14.98
2019-01-20T12:18:11.363Z,15.63
2019-01-20T12:20:40.016Z,14.67
2019-01-20T12:23:08.599Z,14.37
2019-01-20T12:25:37.182Z,14.23
2019-01-20T12:28:05.766Z,14.97
2019-01-20T12:30:36.126Z,15.40
2019-01-20T12:33:05.081Z,14.18
2019-01-20T12:35:33.693Z,15.53
2019-01-20T12:38:02.277Z,14.95
2019-01-20T12:40:36.410Z,13.73
2019-01-20T12:43:04.990Z,14.47
2019-01-20T12:45:33.725Z,14.67
2019-01-20T12:48:02.429Z,15.20
2019-01-20T12:50:31.012Z,14.47
2019-01-20T12:52:59.670Z,14.73
2019-01-20T12:55:28.273Z,14.90
2019-01-20T12:57:56.962Z,14.30
2019-01-20T13:00:25.555Z,15.23
2019-01-20T13:02:54.134Z,14.70
2019-01-20T13:05:24.110Z,15.00
2019-01-20T13:07:53.034Z,14.70
2019-01-20T13:10:21.615Z,14.33
2019-01-20T13:12:50.182Z,15.07
2019-01-20T13:15:19.860Z,15.40
2019-01-20T13:17:48.651Z,15.50
2019-01-20T13:20:19.288Z,15.70
2019-01-20T13:22:47.924Z,14.97
2019-01-20T13:25:18.823Z,15.87
2019-01-20T13:27:47.510Z,15.87
2019-01-20T13:30:18.324Z,14.90
2019-01-20T13:32:46.940Z,15.60
2019-01-20T13:35:16.601Z,15.97
2019-01-20T13:37:47.894Z,17.07
2019-01-20T13:40:23.206Z,14.80
2019-01-20T13:42:51.784Z,15.57
2019-01-20T13:45:20.387Z,15.43
2019-01-20T13:47:49.154Z,15.80
2019-01-20T13:50:18.472Z,15.83
2019-01-20T13:52:47.185Z,15.88
2019-01-20T13:55:15.837Z,15.17
2019-01-20T13:57:44.417Z,16.40
2019-01-20T14:00:15.876Z,14.50
2019-01-20T14:02:44.447Z,15.90
2019-01-20T14:05:13.014Z,15.53
2019-01-20T14:07:41.616Z,15.37
2019-01-20T14:10:12.048Z,20.95
2019-01-20T14:12:42.849Z,15.60
2019-01-20T14:15:12.648Z,15.80
2019-01-20T14:17:41.251Z,15.97
2019-01-20T14:20:14.410Z,17.67
2019-01-20T14:22:43.037Z,16.03
2019-01-20T14:25:12.994Z,15.20
2019-01-20T14:27:41.640Z,16.20
2019-01-20T14:30:13.542Z,15.57
2019-01-20T14:32:42.198Z,15.23
2019-01-20T14:35:10.963Z,16.10
2019-01-20T14:37:39.568Z,16.50
2019-01-20T14:40:09.309Z,16.17
2019-01-20T14:42:37.960Z,14.60
2019-01-20T14:45:07.613Z,14.63
2019-01-20T14:47:42.924Z,15.03
2019-01-20T14:50:14.863Z,14.53
2019-01-20T14:52:43.573Z,15.10
2019-01-20T14:55:12.201Z,14.50
2019-01-20T14:57:41.016Z,15.33
2019-01-20T15:00:14.022Z,14.97
2019-01-20T15:02:43.981Z,16.27
2019-01-20T15:05:24.886Z,15.13
2019-01-20T15:07:55.043Z,15.63
2019-01-20T15:10:27.034Z,15.13
2019-01-20T15:12:55.975Z,14.47
2019-01-20T15:15:28.595Z,16.03
2019-01-20T15:17:57.361Z,15.85
2019-01-20T15:20:26.018Z,15.07
2019-01-20T15:22:55.707Z,15.35
2019-01-20T15:25:24.586Z,15.90
2019-01-20T15:27:59.251Z,16.23
2019-01-20T15:30:29.705Z,17.20
2019-01-20T15:33:00.075Z,20.47
2019-01-20T15:35:28.970Z,17.03
2019-01-20T15:37:57.766Z,18.53
2019-01-20T15:40:27.902Z,17.57
2019-01-20T15:42:56.632Z,16.40
2019-01-20T15:45:25.340Z,14.85
2019-01-20T15:47:55.655Z,16.53
2019-01-20T15:50:26.510Z,15.03
2019-01-20T15:52:55.082Z,16.32
2019-01-20T15:55:23.704Z,16.83
2019-01-20T15:57:53.204Z,16.70
2019-01-20T16:00:24.219Z,17.15
2019-01-20T16:02:52.799Z,19.23
2019-01-20T16:05:21.407Z,18.03
2019-01-20T16:07:50.164Z,16.57
2019-01-20T16:10:18.810Z,15.57
2019-01-20T16:12:47.841Z,15.93
2019-01-20T16:15:30.786Z,14.77
2019-01-20T16:17:59.375Z,14.97
2019-01-20T16:20:29.381Z,14.80
2019-01-20T16:22:58.070Z,15.65
2019-01-20T16:25:28.890Z,15.17
2019-01-20T16:27:57.482Z,14.75
2019-01-20T16:30:28.542Z,14.05
2019-01-20T16:32:57.145Z,14.53
2019-01-20T16:35:26.147Z,14.57
2019-01-20T16:37:56.195Z,13.83
2019-01-20T16:40:24.820Z,15.03
2019-01-20T16:42:55.564Z,15.67
2019-01-20T16:45:42.030Z,15.93
2019-01-20T16:48:06.930Z,14.73
2019-01-20T16:50:35.846Z,15.73
2019-01-20T16:53:05.336Z,14.27
2019-01-20T16:55:33.968Z,15.60
2019-01-20T16:58:02.666Z,16.60
2019-01-20T17:00:32.834Z,18.93
2019-01-20T17:03:01.458Z,16.37
2019-01-20T17:05:30.038Z,14.65
2019-01-20T17:07:58.679Z,14.50
2019-01-20T17:10:29.630Z,14.60
2019-01-20T17:12:58.222Z,14.17
2019-01-20T17:15:29.667Z,14.27
2019-01-20T17:17:58.313Z,13.60
2019-01-20T17:20:26.883Z,14.57
2019-01-20T17:22:55.523Z,14.53
2019-01-20T17:25:24.076Z,14.98
2019-01-20T17:27:52.698Z,14.40
2019-01-20T17:30:23.512Z,13.87
2019-01-20T17:32:53.949Z,13.95
2019-01-20T17:35:22.540Z,13.60
2019-01-20T17:37:51.151Z,12.67
2019-01-20T17:40:21.846Z,13.00
2019-01-20T17:42:50.435Z,12.23
2019-01-20T17:45:24.041Z,12.98
2019-01-20T17:47:52.734Z,12.53
2019-01-20T17:50:23.873Z,12.70
2019-01-20T17:52:54.505Z,13.75
2019-01-20T17:55:24.199Z,22.20
2019-01-20T17:57:52.774Z,18.73
2019-01-20T18:00:24.729Z,19.77
2019-01-20T18:02:53.322Z,19.90
2019-01-20T18:05:23.062Z,18.43
2019-01-20T18:07:53.436Z,14.53
2019-01-20T18:10:22.013Z,14.37
2019-01-20T18:12:50.610Z,14.63
2019-01-20T18:15:20.249Z,13.67
2019-01-20T18:17:51.184Z,14.03
2019-01-20T18:20:25.820Z,13.20
2019-01-20T18:22:54.386Z,13.43
2019-01-20T18:25:23.863Z,13.97
2019-01-20T18:27:52.457Z,12.60
2019-01-20T18:30:25.346Z,11.73
2019-01-20T18:32:54.482Z,11.40
2019-01-20T18:35:25.080Z,12.23
2019-01-20T18:37:53.703Z,11.97
2019-01-20T18:40:24.098Z,11.23
2019-01-20T18:42:54.943Z,11.70
2019-01-20T18:45:31.014Z,11.30
2019-01-20T18:48:00.014Z,10.60
2019-01-20T18:50:36.021Z,10.87
2019-01-20T18:53:05.017Z,11.17
2019-01-20T18:55:38.402Z,10.90
2019-01-20T18:58:07.541Z,10.50
2019-01-20T19:00:54.446Z,12.00
2019-01-20T19:03:23.112Z,11.30
2019-01-20T19:05:51.695Z,11.00
2019-01-20T19:08:20.297Z,11.57
2019-01-20T19:10:49.104Z,11.17
2019-01-20T19:13:17.755Z,12.00
2019-01-20T19:15:46.376Z,11.00
2019-01-20T19:18:18.869Z,11.90
2019-01-20T19:20:45.381Z,13.17
2019-01-20T19:23:14.015Z,17.98
2019-01-20T19:25:42.689Z,12.90
2019-01-20T19:28:11.309Z,12.30
2019-01-20T19:30:39.915Z,11.93
2019-01-20T19:33:09.090Z,12.83
2019-01-20T19:35:37.823Z,12.43
2019-01-20T19:38:06.393Z,12.23
2019-01-20T19:40:35.107Z,12.53
2019-01-20T19:43:03.696Z,11.40
2019-01-20T19:45:32.276Z,12.73
2019-01-20T19:48:00.900Z,13.10
2019-01-20T19:50:39.730Z,12.90
2019-01-20T19:53:08.311Z,13.63
2019-01-20T19:55:36.897Z,18.05
2019-01-20T19:58:05.662Z,15.13
2019-01-20T20:00:34.234Z,13.87
2019-01-20T20:03:02.821Z,13.97
2019-01-20T20:05:31.889Z,13.57
2019-01-20T20:08:00.530Z,13.17
2019-01-20T20:10:29.140Z,15.00
2019-01-20T20:12:58.288Z,14.67
2019-01-20T20:15:28.293Z,14.43
2019-01-20T20:17:56.914Z,14.10
2019-01-20T20:20:25.526Z,14.93
2019-01-20T20:22:54.190Z,15.07
2019-01-20T20:25:23.769Z,13.43
2019-01-20T20:27:52.677Z,16.10
2019-01-20T20:30:29.418Z,15.00
2019-01-20T20:32:58.075Z,13.88
2019-01-20T20:35:26.724Z,14.80
2019-01-20T20:37:55.418Z,15.03
2019-01-20T20:40:24.006Z,15.10
2019-01-20T20:42:52.618Z,15.30
2019-01-20T20:45:22.365Z,14.87
2019-01-20T20:47:50.946Z,14.97
2019-01-20T20:50:19.606Z,15.23
2019-01-20T20:52:48.178Z,15.73
2019-01-20T20:55:18.222Z,15.77
2019-01-20T20:57:49.226Z,15.37
2019-01-20T21:00:36.650Z,15.50
2019-01-20T21:03:09.575Z,14.50
2019-01-20T21:05:38.149Z,15.67
2019-01-20T21:08:07.138Z,14.87
2019-01-20T21:10:37.223Z,14.53
2019-01-20T21:13:05.906Z,14.47
2019-01-20T21:15:34.677Z,13.53
2019-01-20T21:18:04.011Z,14.20
2019-01-20T21:20:33.172Z,13.93
2019-01-20T21:23:01.896Z,14.00
2019-01-20T21:25:30.938Z,13.80
2019-01-20T21:28:01.357Z,14.27
2019-01-20T21:30:30.713Z,14.47
2019-01-20T21:32:59.322Z,14.13
2019-01-20T21:35:34.246Z,13.93
2019-01-20T21:38:06.903Z,15.00
2019-01-20T21:40:34.206Z,13.93
2019-01-20T21:43:03.202Z,14.57
2019-01-20T21:45:31.862Z,14.93
2019-01-20T21:48:00.663Z,15.20
2019-01-20T21:50:30.792Z,15.03
2019-01-20T21:53:01.029Z,15.40
2019-01-20T21:55:29.713Z,15.97
2019-01-20T21:57:58.373Z,15.17
2019-01-20T22:00:28.440Z,14.73
2019-01-20T22:02:57.024Z,14.10
2019-01-20T22:05:25.892Z,15.27
2019-01-20T22:07:55.661Z,14.15
2019-01-20T22:10:24.469Z,14.07
2019-01-20T22:12:53.058Z,14.10
2019-01-20T22:15:21.849Z,14.20
2019-01-20T22:17:50.645Z,14.17
2019-01-20T22:20:20.956Z,12.97
2019-01-20T22:22:49.768Z,14.03
2019-01-20T22:25:19.292Z,14.33
2019-01-20T22:27:48.306Z,14.43
2019-01-20T22:30:30.031Z,13.70
2019-01-20T22:33:00.235Z,13.50
2019-01-20T22:35:29.420Z,13.75
2019-01-20T22:37:58.275Z,13.20
2019-01-20T22:40:27.450Z,13.93
2019-01-20T22:42:56.038Z,14.33
2019-01-20T22:45:26.689Z,13.80
2019-01-20T22:47:55.688Z,14.70
2019-01-20T22:50:25.075Z,13.33
2019-01-20T22:52:53.890Z,15.10
2019-01-20T22:55:22.829Z,14.00
2019-01-20T22:57:51.825Z,16.17
2019-01-20T23:00:30.510Z,14.87
2019-01-20T23:02:59.231Z,16.10
2019-01-20T23:05:27.974Z,16.90
2019-01-20T23:07:57.294Z,16.83
2019-01-20T23:10:25.976Z,16.43
2019-01-20T23:12:54.566Z,16.20
2019-01-20T23:15:23.697Z,15.93
2019-01-20T23:17:52.341Z,15.80
2019-01-20T23:20:21.043Z,15.57
2019-01-20T23:22:49.730Z,15.37
2019-01-20T23:25:18.338Z,15.83
2019-01-20T23:27:47.327Z,15.80
2019-01-20T23:30:16.168Z,15.60
2019-01-20T23:32:44.770Z,14.97
2019-01-20T23:35:13.358Z,15.70
2019-01-20T23:37:41.934Z,15.57
2019-01-20T23:40:10.727Z,16.13
2019-01-20T23:42:39.298Z,15.60
2019-01-20T23:45:09.362Z,16.23
2019-01-20T23:47:37.926Z,16.97
2019-01-20T23:50:08.734Z,16.70
2019-01-20T23:52:37.377Z,17.53
2019-01-20T23:55:06.186Z,17.43
2019-01-20T23:57:34.767Z,16.57
